sensor_id;sensor_type;location;lat;lon;timestamp;P1;durP1;ratioP1;P2;durP2;ratioP2
64595;SDS011;51003;51.628;6.670;2023-11-22T09:13:55;30.33;;;13.40;;
64595;SDS011;51003;51.628;6.670;2023-11-22T09:19:28;21.17;;;11.40;;
64595;SDS011;51003;51.628;6.670;2023-11-22T10:39:36;18.23;;;8.67;;
64595;SDS011;51003;51.628;6.670;2023-11-22T10:42:02;12.83;;;7.60;;
64595;SDS011;51003;51.628;6.670;2023-11-22T10:44:30;11.70;;;7.60;;
64595;SDS011;51003;51.628;6.670;2023-11-22T10:46:57;12.13;;;6.70;;
64595;SDS011;51003;51.628;6.670;2023-11-22T10:49:23;11.03;;;7.00;;
64595;SDS011;51003;51.628;6.670;2023-11-22T10:51:51;13.60;;;7.47;;
64595;SDS011;51003;51.628;6.670;2023-11-22T10:54:19;9.00;;;6.50;;
64595;SDS011;51003;51.628;6.670;2023-11-22T10:56:46;11.73;;;7.07;;
64595;SDS011;51003;51.628;6.670;2023-11-22T10:59:17;14.40;;;6.57;;
64595;SDS011;51003;51.628;6.670;2023-11-22T11:01:45;13.10;;;6.60;;
64595;SDS011;51003;51.628;6.670;2023-11-22T11:04:23;28.03;;;6.20;;
64595;SDS011;51003;51.628;6.670;2023-11-22T11:06:51;8.00;;;6.37;;
64595;SDS011;51003;51.628;6.670;2023-11-22T11:09:20;13.10;;;6.47;;
64595;SDS011;51003;51.628;6.670;2023-11-22T11:11:49;9.67;;;5.60;;
64595;SDS011;51003;51.628;6.670;2023-11-22T11:14:15;6.60;;;5.33;;
64595;SDS011;51003;51.628;6.670;2023-11-22T11:16:42;7.47;;;5.03;;
64595;SDS011;51003;51.628;6.670;2023-11-22T11:19:15;7.53;;;4.90;;
64595;SDS011;51003;51.628;6.670;2023-11-22T11:21:42;6.50;;;4.90;;
64595;SDS011;51003;51.628;6.670;2023-11-22T11:24:08;6.30;;;5.37;;
64595;SDS011;51003;51.628;6.670;2023-11-22T11:26:33;6.17;;;5.33;;
64595;SDS011;51003;51.628;6.670;2023-11-22T11:29:02;6.30;;;5.03;;
64595;SDS011;51003;51.628;6.670;2023-11-22T11:31:32;6.47;;;4.70;;
64595;SDS011;51003;51.628;6.670;2023-11-22T11:34:02;7.70;;;4.93;;
64595;SDS011;51003;51.628;6.670;2023-11-22T11:36:31;5.33;;;4.83;;
64595;SDS011;51003;51.628;6.670;2023-11-22T11:39:01;6.63;;;4.93;;
64595;SDS011;51003;51.628;6.670;2023-11-22T11:41:30;6.67;;;5.43;;
64595;SDS011;51003;51.628;6.670;2023-11-22T11:44:03;8.13;;;4.90;;
64595;SDS011;51003;51.628;6.670;2023-11-22T11:46:30;7.40;;;5.10;;
64595;SDS011;51003;51.628;6.670;2023-11-22T11:48:56;6.67;;;4.60;;
64595;SDS011;51003;51.628;6.670;2023-11-22T11:51:25;8.57;;;5.60;;
64595;SDS011;51003;51.628;6.670;2023-11-22T11:53:52;6.20;;;5.10;;
64595;SDS011;51003;51.628;6.670;2023-11-22T11:56:19;9.47;;;5.30;;
64595;SDS011;51003;51.628;6.670;2023-11-22T11:58:45;5.87;;;5.03;;
64595;SDS011;51003;51.628;6.670;2023-11-22T12:01:14;6.70;;;5.10;;
64595;SDS011;51003;51.628;6.670;2023-11-22T12:03:47;9.70;;;4.77;;
64595;SDS011;51003;51.628;6.670;2023-11-22T12:06:16;5.00;;;4.43;;
64595;SDS011;51003;51.628;6.670;2023-11-22T12:08:43;7.30;;;5.17;;
64595;SDS011;51003;51.628;6.670;2023-11-22T12:11:09;6.87;;;5.00;;
64595;SDS011;51003;51.628;6.670;2023-11-22T12:13:35;6.87;;;5.00;;
64595;SDS011;51003;51.628;6.670;2023-11-22T12:16:08;10.87;;;5.07;;
64595;SDS011;51003;51.628;6.670;2023-11-22T12:18:42;10.33;;;5.80;;
64595;SDS011;51003;51.628;6.670;2023-11-22T12:21:09;10.83;;;6.13;;
64595;SDS011;51003;51.628;6.670;2023-11-22T12:23:38;10.47;;;6.57;;
64595;SDS011;51003;51.628;6.670;2023-11-22T12:26:04;12.53;;;8.13;;
64595;SDS011;51003;51.628;6.670;2023-11-22T12:28:30;17.20;;;10.43;;
64595;SDS011;51003;51.628;6.670;2023-11-22T12:31:07;16.73;;;7.27;;
64595;SDS011;51003;51.628;6.670;2023-11-22T12:33:34;13.27;;;7.70;;
64595;SDS011;51003;51.628;6.670;2023-11-22T12:36:00;8.20;;;6.50;;
64595;SDS011;51003;51.628;6.670;2023-11-22T12:38:27;10.30;;;6.90;;
64595;SDS011;51003;51.628;6.670;2023-11-22T12:40:56;10.63;;;6.47;;
64595;SDS011;51003;51.628;6.670;2023-11-22T12:43:22;8.50;;;6.80;;
64595;SDS011;51003;51.628;6.670;2023-11-22T12:45:47;13.30;;;6.47;;
64595;SDS011;51003;51.628;6.670;2023-11-22T12:48:24;10.67;;;7.20;;
64595;SDS011;51003;51.628;6.670;2023-11-22T12:50:50;11.37;;;7.50;;
64595;SDS011;51003;51.628;6.670;2023-11-22T12:53:16;9.23;;;6.33;;
64595;SDS011;51003;51.628;6.670;2023-11-22T12:58:14;9.20;;;7.00;;
64595;SDS011;51003;51.628;6.670;2023-11-22T13:00:40;8.43;;;6.60;;
64595;SDS011;51003;51.628;6.670;2023-11-22T13:03:09;11.13;;;5.80;;
64595;SDS011;51003;51.628;6.670;2023-11-22T13:05:35;10.70;;;7.07;;
64595;SDS011;51003;51.628;6.670;2023-11-22T13:08:02;8.80;;;6.30;;
64595;SDS011;51003;51.628;6.670;2023-11-22T13:10:29;9.93;;;6.27;;
64595;SDS011;51003;51.628;6.670;2023-11-22T13:12:54;9.40;;;5.60;;
64595;SDS011;51003;51.628;6.670;2023-11-22T13:15:20;11.53;;;6.37;;
64595;SDS011;51003;51.628;6.670;2023-11-22T13:17:48;8.20;;;5.97;;
64595;SDS011;51003;51.628;6.670;2023-11-22T13:20:26;9.00;;;6.07;;
64595;SDS011;51003;51.628;6.670;2023-11-22T13:22:55;12.60;;;6.47;;
64595;SDS011;51003;51.628;6.670;2023-11-22T13:25:21;10.50;;;6.73;;
64595;SDS011;51003;51.628;6.670;2023-11-22T13:27:48;8.90;;;5.97;;
64595;SDS011;51003;51.628;6.670;2023-11-22T13:30:18;14.40;;;6.53;;
64595;SDS011;51003;51.628;6.670;2023-11-22T13:32:45;9.77;;;6.30;;
64595;SDS011;51003;51.628;6.670;2023-11-22T13:35:10;13.90;;;5.73;;
64595;SDS011;51003;51.628;6.670;2023-11-22T13:37:46;12.60;;;7.20;;
64595;SDS011;51003;51.628;6.670;2023-11-22T13:40:13;11.40;;;5.80;;
64595;SDS011;51003;51.628;6.670;2023-11-22T13:42:40;8.10;;;4.97;;
64595;SDS011;51003;51.628;6.670;2023-11-22T13:45:12;18.90;;;11.30;;
64595;SDS011;51003;51.628;6.670;2023-11-22T13:47:51;20.60;;;12.70;;
64595;SDS011;51003;51.628;6.670;2023-11-22T13:50:22;15.87;;;11.23;;
64595;SDS011;51003;51.628;6.670;2023-11-22T13:52:48;4.87;;;3.67;;
64595;SDS011;51003;51.628;6.670;2023-11-22T13:55:14;6.93;;;5.50;;
64595;SDS011;51003;51.628;6.670;2023-11-22T13:57:42;7.30;;;4.27;;
64595;SDS011;51003;51.628;6.670;2023-11-22T14:00:09;9.83;;;6.10;;
64595;SDS011;51003;51.628;6.670;2023-11-22T14:02:43;6.03;;;4.40;;
64595;SDS011;51003;51.628;6.670;2023-11-22T14:05:11;6.27;;;4.23;;
64595;SDS011;51003;51.628;6.670;2023-11-22T14:07:37;8.20;;;4.03;;
64595;SDS011;51003;51.628;6.670;2023-11-22T14:10:03;6.23;;;4.30;;
64595;SDS011;51003;51.628;6.670;2023-11-22T14:12:29;6.23;;;4.70;;
64595;SDS011;51003;51.628;6.670;2023-11-22T14:14:56;5.87;;;4.10;;
64595;SDS011;51003;51.628;6.670;2023-11-22T14:17:22;6.70;;;4.30;;
64595;SDS011;51003;51.628;6.670;2023-11-22T14:19:49;14.07;;;4.70;;
64595;SDS011;51003;51.628;6.670;2023-11-22T14:22:15;5.20;;;4.10;;
64595;SDS011;51003;51.628;6.670;2023-11-22T14:24:40;4.43;;;3.77;;
64595;SDS011;51003;51.628;6.670;2023-11-22T14:27:05;5.40;;;3.63;;
64595;SDS011;51003;51.628;6.670;2023-11-22T14:29:31;5.80;;;3.80;;
64595;SDS011;51003;51.628;6.670;2023-11-22T14:31:58;11.10;;;4.30;;
64595;SDS011;51003;51.628;6.670;2023-11-22T14:34:24;5.37;;;3.93;;
64595;SDS011;51003;51.628;6.670;2023-11-22T14:36:49;5.93;;;4.10;;
64595;SDS011;51003;51.628;6.670;2023-11-22T14:39:14;5.63;;;4.00;;
64595;SDS011;51003;51.628;6.670;2023-11-22T14:41:41;4.10;;;3.40;;
64595;SDS011;51003;51.628;6.670;2023-11-22T14:44:06;5.33;;;4.07;;
64595;SDS011;51003;51.628;6.670;2023-11-22T14:46:31;4.10;;;3.60;;
64595;SDS011;51003;51.628;6.670;2023-11-22T14:48:57;4.37;;;3.90;;
64595;SDS011;51003;51.628;6.670;2023-11-22T14:51:23;4.67;;;3.80;;
64595;SDS011;51003;51.628;6.670;2023-11-22T14:53:49;11.80;;;5.63;;
64595;SDS011;51003;51.628;6.670;2023-11-22T14:56:15;5.63;;;4.03;;
64595;SDS011;51003;51.628;6.670;2023-11-22T14:58:40;8.47;;;5.60;;
64595;SDS011;51003;51.628;6.670;2023-11-22T15:01:06;12.40;;;7.03;;
64595;SDS011;51003;51.628;6.670;2023-11-22T15:03:33;46.30;;;16.80;;
64595;SDS011;51003;51.628;6.670;2023-11-22T15:06:00;27.30;;;13.03;;
64595;SDS011;51003;51.628;6.670;2023-11-22T15:08:26;18.40;;;7.70;;
64595;SDS011;51003;51.628;6.670;2023-11-22T15:10:54;15.97;;;7.80;;
64595;SDS011;51003;51.628;6.670;2023-11-22T15:13:20;9.40;;;7.00;;
64595;SDS011;51003;51.628;6.670;2023-11-22T15:15:46;9.73;;;6.40;;
64595;SDS011;51003;51.628;6.670;2023-11-22T15:18:11;7.50;;;4.77;;
64595;SDS011;51003;51.628;6.670;2023-11-22T15:20:36;10.13;;;6.00;;
64595;SDS011;51003;51.628;6.670;2023-11-22T15:23:03;8.83;;;5.80;;
64595;SDS011;51003;51.628;6.670;2023-11-22T15:25:30;10.20;;;6.73;;
64595;SDS011;51003;51.628;6.670;2023-11-22T15:27:56;8.20;;;5.90;;
64595;SDS011;51003;51.628;6.670;2023-11-22T15:30:24;8.10;;;5.53;;
64595;SDS011;51003;51.628;6.670;2023-11-22T15:32:49;12.70;;;8.23;;
64595;SDS011;51003;51.628;6.670;2023-11-22T15:35:15;13.20;;;6.57;;
64595;SDS011;51003;51.628;6.670;2023-11-22T15:37:41;10.40;;;6.70;;
64595;SDS011;51003;51.628;6.670;2023-11-22T15:40:07;9.23;;;5.73;;
64595;SDS011;51003;51.628;6.670;2023-11-22T15:42:35;11.40;;;7.83;;
64595;SDS011;51003;51.628;6.670;2023-11-22T15:45:01;15.53;;;10.37;;
64595;SDS011;51003;51.628;6.670;2023-11-22T15:47:27;34.30;;;17.90;;
64595;SDS011;51003;51.628;6.670;2023-11-22T15:49:52;27.00;;;14.80;;
64595;SDS011;51003;51.628;6.670;2023-11-22T15:52:19;19.67;;;10.50;;
64595;SDS011;51003;51.628;6.670;2023-11-22T15:54:46;20.97;;;10.43;;
64595;SDS011;51003;51.628;6.670;2023-11-22T15:57:12;28.83;;;13.50;;
64595;SDS011;51003;51.628;6.670;2023-11-22T15:59:38;28.17;;;14.40;;
64595;SDS011;51003;51.628;6.670;2023-11-22T16:02:04;23.17;;;11.20;;
64595;SDS011;51003;51.628;6.670;2023-11-22T16:04:32;13.93;;;6.90;;
64595;SDS011;51003;51.628;6.670;2023-11-22T16:06:57;15.80;;;8.37;;
64595;SDS011;51003;51.628;6.670;2023-11-22T16:09:23;11.13;;;6.80;;
64595;SDS011;51003;51.628;6.670;2023-11-22T16:11:48;12.30;;;7.27;;
64595;SDS011;51003;51.628;6.670;2023-11-22T16:14:14;11.30;;;6.60;;
64595;SDS011;51003;51.628;6.670;2023-11-22T16:16:40;10.77;;;6.10;;
64595;SDS011;51003;51.628;6.670;2023-11-22T16:19:06;9.73;;;6.00;;
64595;SDS011;51003;51.628;6.670;2023-11-22T16:21:32;15.93;;;8.60;;
64595;SDS011;51003;51.628;6.670;2023-11-22T16:24:00;13.40;;;6.67;;
64595;SDS011;51003;51.628;6.670;2023-11-22T16:26:25;14.47;;;7.07;;
64595;SDS011;51003;51.628;6.670;2023-11-22T16:28:53;12.83;;;6.70;;
64595;SDS011;51003;51.628;6.670;2023-11-22T16:31:19;13.37;;;7.40;;
64595;SDS011;51003;51.628;6.670;2023-11-22T16:33:45;12.47;;;7.53;;
64595;SDS011;51003;51.628;6.670;2023-11-22T16:36:11;16.40;;;8.87;;
64595;SDS011;51003;51.628;6.670;2023-11-22T16:38:37;15.20;;;8.93;;
64595;SDS011;51003;51.628;6.670;2023-11-22T16:41:02;16.80;;;9.40;;
64595;SDS011;51003;51.628;6.670;2023-11-22T16:43:29;16.13;;;9.23;;
64595;SDS011;51003;51.628;6.670;2023-11-22T16:45:54;17.03;;;9.47;;
64595;SDS011;51003;51.628;6.670;2023-11-22T16:48:21;23.70;;;12.50;;
64595;SDS011;51003;51.628;6.670;2023-11-22T16:50:46;42.07;;;18.40;;
64595;SDS011;51003;51.628;6.670;2023-11-22T16:53:11;31.63;;;18.43;;
64595;SDS011;51003;51.628;6.670;2023-11-22T16:55:39;28.80;;;14.80;;
64595;SDS011;51003;51.628;6.670;2023-11-22T16:58:06;22.60;;;13.60;;
64595;SDS011;51003;51.628;6.670;2023-11-22T17:00:31;26.63;;;15.03;;
64595;SDS011;51003;51.628;6.670;2023-11-22T17:02:56;20.60;;;10.30;;
64595;SDS011;51003;51.628;6.670;2023-11-22T17:05:24;19.40;;;11.20;;
64595;SDS011;51003;51.628;6.670;2023-11-22T17:07:50;23.53;;;13.70;;
64595;SDS011;51003;51.628;6.670;2023-11-22T17:10:16;22.70;;;12.00;;
64595;SDS011;51003;51.628;6.670;2023-11-22T17:12:42;24.67;;;13.20;;
64595;SDS011;51003;51.628;6.670;2023-11-22T17:15:08;22.80;;;12.87;;
64595;SDS011;51003;51.628;6.670;2023-11-22T17:17:33;33.27;;;15.87;;
64595;SDS011;51003;51.628;6.670;2023-11-22T17:20:00;26.23;;;15.00;;
64595;SDS011;51003;51.628;6.670;2023-11-22T17:22:29;23.47;;;14.13;;
64595;SDS011;51003;51.628;6.670;2023-11-22T17:24:55;29.27;;;14.73;;
64595;SDS011;51003;51.628;6.670;2023-11-22T17:27:22;37.73;;;18.80;;
64595;SDS011;51003;51.628;6.670;2023-11-22T17:29:47;44.80;;;21.07;;
64595;SDS011;51003;51.628;6.670;2023-11-22T17:32:15;31.27;;;15.03;;
64595;SDS011;51003;51.628;6.670;2023-11-22T17:34:44;43.27;;;22.57;;
64595;SDS011;51003;51.628;6.670;2023-11-22T17:37:09;27.27;;;15.40;;
64595;SDS011;51003;51.628;6.670;2023-11-22T17:39:35;25.03;;;12.07;;
64595;SDS011;51003;51.628;6.670;2023-11-22T17:42:00;35.77;;;18.33;;
64595;SDS011;51003;51.628;6.670;2023-11-22T17:44:25;32.73;;;14.93;;
64595;SDS011;51003;51.628;6.670;2023-11-22T17:46:51;24.47;;;13.03;;
64595;SDS011;51003;51.628;6.670;2023-11-22T17:49:17;29.50;;;14.43;;
64595;SDS011;51003;51.628;6.670;2023-11-22T17:51:47;26.30;;;13.63;;
64595;SDS011;51003;51.628;6.670;2023-11-22T17:54:19;25.80;;;12.77;;
64595;SDS011;51003;51.628;6.670;2023-11-22T17:56:45;33.73;;;15.53;;
64595;SDS011;51003;51.628;6.670;2023-11-22T17:59:11;30.43;;;14.80;;
64595;SDS011;51003;51.628;6.670;2023-11-22T18:01:37;26.73;;;15.00;;
64595;SDS011;51003;51.628;6.670;2023-11-22T18:04:02;32.03;;;15.77;;
64595;SDS011;51003;51.628;6.670;2023-11-22T18:06:28;35.93;;;19.27;;
64595;SDS011;51003;51.628;6.670;2023-11-22T18:08:54;33.70;;;16.27;;
64595;SDS011;51003;51.628;6.670;2023-11-22T18:11:22;33.50;;;16.87;;
64595;SDS011;51003;51.628;6.670;2023-11-22T18:13:50;32.17;;;16.97;;
64595;SDS011;51003;51.628;6.670;2023-11-22T18:16:16;38.57;;;18.67;;
64595;SDS011;51003;51.628;6.670;2023-11-22T18:18:41;38.03;;;17.93;;
64595;SDS011;51003;51.628;6.670;2023-11-22T18:21:06;33.90;;;17.00;;
64595;SDS011;51003;51.628;6.670;2023-11-22T18:23:32;34.03;;;16.90;;
64595;SDS011;51003;51.628;6.670;2023-11-22T18:25:58;36.20;;;18.57;;
64595;SDS011;51003;51.628;6.670;2023-11-22T18:28:23;33.90;;;15.80;;
64595;SDS011;51003;51.628;6.670;2023-11-22T18:30:48;30.30;;;15.70;;
64595;SDS011;51003;51.628;6.670;2023-11-22T18:33:17;36.53;;;16.80;;
64595;SDS011;51003;51.628;6.670;2023-11-22T18:35:42;33.27;;;16.30;;
